Time;durP1;ratioP1;P1;durP2;ratioP2;P2;SDS_P1;SDS_P2;PMS_P1;PMS_P2;Temp;Humidity;BMP_temperature;BMP_pressure;BME280_temperature;BME280_humidity;BME280_pressure;Samples;Min_cycle;Max_cycle;Signal;HPM_P1;HPM_P2
2022/07/29 00:02:18;;;;;;;;;;;21.70;64.40;;;;;;6244668;23;874;-74
2022/07/29 00:04:43;;;;;;;;;;;21.70;64.40;;;;;;6217281;23;1885;-74
2022/07/29 00:07:09;;;;;;;;;;;21.70;64.40;;;;;;6192985;23;1271;-74
2022/07/29 00:09:34;;;;;;;;;;;21.70;64.40;;;;;;6217738;23;964;-74
2022/07/29 00:12:00;;;;;;;;;;;21.70;64.40;;;;;;6218080;23;1263;-74
2022/07/29 00:14:25;;;;;;;;;;;21.70;64.40;;;;;;6217679;23;1265;-74
2022/07/29 00:16:51;;;;;;;;;;;21.70;64.40;;;;;;6191975;23;1167;-73
2022/07/29 00:19:16;;;;;;;;;;;21.70;64.40;;;;;;6217739;23;984;-74
2022/07/29 00:21:42;;;;;;;;;;;21.70;64.40;;;;;;6192776;23;1379;-74
2022/07/29 00:24:07;;;;;;;;;;;21.70;64.50;;;;;;6191941;23;1889;-74
2022/07/29 00:26:33;;;;;;;;;;;21.70;64.50;;;;;;6217530;23;865;-74
2022/07/29 00:28:59;;;;;;;;;;;21.70;64.50;;;;;;6217321;23;838;-74
2022/07/29 00:31:24;;;;;;;;;;;21.70;64.50;;;;;;6244908;23;829;-74
2022/07/29 00:33:49;;;;;;;;;;;21.70;64.50;;;;;;6217940;23;1196;-74
2022/07/29 00:36:15;;;;;;;;;;;21.70;64.50;;;;;;6192707;23;1245;-74
2022/07/29 00:38:44;;;;;;;;;;;21.70;64.50;;;;;;6244799;23;1052;-74
2022/07/29 00:41:09;;;;;;;;;;;21.70;64.60;;;;;;6244735;23;865;-74
2022/07/29 00:43:34;;;;;;;;;;;21.70;64.60;;;;;;6192231;23;1941;-74
2022/07/29 00:46:00;;;;;;;;;;;21.70;64.50;;;;;;6244199;23;873;-74
2022/07/29 00:48:25;;;;;;;;;;;21.70;64.60;;;;;;6192519;23;854;-74
2022/07/29 00:50:51;;;;;;;;;;;21.70;64.60;;;;;;6244501;23;798;-75
2022/07/29 00:53:16;;;;;;;;;;;21.70;64.70;;;;;;6243937;23;1183;-75
2022/07/29 00:55:42;;;;;;;;;;;21.70;64.70;;;;;;6244373;23;913;-75
2022/07/29 00:58:07;;;;;;;;;;;21.70;64.70;;;;;;6217741;23;802;-75
2022/07/29 01:00:33;;;;;;;;;;;21.70;64.70;;;;;;6192474;23;1226;-75
2022/07/29 01:02:58;;;;;;;;;;;21.70;64.70;;;;;;6217503;23;1952;-75
2022/07/29 01:05:24;;;;;;;;;;;21.70;64.80;;;;;;6217022;23;937;-74
2022/07/29 01:07:51;;;;;;;;;;;21.70;64.70;;;;;;6217581;23;813;-75
2022/07/29 01:10:16;;;;;;;;;;;21.70;64.80;;;;;;6218009;23;815;-75
2022/07/29 01:12:42;;;;;;;;;;;21.70;64.80;;;;;;6243622;23;984;-75
2022/07/29 01:15:08;;;;;;;;;;;21.70;64.80;;;;;;6217057;23;1214;-74
2022/07/29 01:17:36;;;;;;;;;;;21.70;64.80;;;;;;6216974;23;806;-75
2022/07/29 01:20:05;;;;;;;;;;;21.70;64.80;;;;;;6217459;23;814;-74
2022/07/29 01:22:36;;;;;;;;;;;21.70;64.80;;;;;;6216852;23;1904;-74
2022/07/29 01:25:01;;;;;;;;;;;21.70;64.80;;;;;;6244248;23;1357;-73
2022/07/29 01:27:33;;;;;;;;;;;21.70;64.80;;;;;;6217584;23;1208;-74
2022/07/29 01:29:59;;;;;;;;;;;21.70;64.90;;;;;;6244704;23;817;-75
2022/07/29 01:32:29;;;;;;;;;;;21.70;64.90;;;;;;6217537;23;851;-75
2022/07/29 01:34:54;;;;;;;;;;;21.70;64.90;;;;;;6216411;23;1274;-75
2022/07/29 01:37:20;;;;;;;;;;;21.70;64.90;;;;;;6244376;23;894;-75
2022/07/29 01:39:45;;;;;;;;;;;21.70;64.90;;;;;;6244454;23;989;-75
2022/07/29 01:42:15;;;;;;;;;;;21.70;64.90;;;;;;6217559;23;932;-75
2022/07/29 01:44:59;;;;;;;;;;;21.70;64.90;;;;;;6217047;23;1928;-75
2022/07/29 01:47:26;;;;;;;;;;;21.70;64.90;;;;;;6243905;23;1091;-75
2022/07/29 01:49:52;;;;;;;;;;;21.70;64.90;;;;;;6192513;23;1474;-75
2022/07/29 01:52:23;;;;;;;;;;;21.70;64.90;;;;;;6192343;23;1355;-75
2022/07/29 01:54:50;;;;;;;;;;;21.70;65.00;;;;;;6191547;23;1230;-75
2022/07/29 01:57:20;;;;;;;;;;;21.70;65.00;;;;;;6192351;23;1224;-75
2022/07/29 01:59:46;;;;;;;;;;;21.70;65.00;;;;;;6192406;23;1377;-75
2022/07/29 02:02:11;;;;;;;;;;;21.70;65.00;;;;;;6217406;23;880;-73
2022/07/29 02:04:37;;;;;;;;;;;21.70;65.00;;;;;;6216356;23;1909;-72
2022/07/29 02:07:03;;;;;;;;;;;21.70;65.00;;;;;;6217099;23;1000;-73
2022/07/29 02:09:29;;;;;;;;;;;21.70;65.00;;;;;;6217194;23;1007;-72
2022/07/29 02:11:55;;;;;;;;;;;21.70;65.00;;;;;;6217180;23;783;-72
2022/07/29 02:14:21;;;;;;;;;;;21.70;65.10;;;;;;6216891;23;1167;-72
2022/07/29 02:16:47;;;;;;;;;;;21.70;65.10;;;;;;6243148;23;789;-72
2022/07/29 02:19:12;;;;;;;;;;;21.70;65.10;;;;;;6191931;23;1040;-73
2022/07/29 02:21:37;;;;;;;;;;;21.70;65.10;;;;;;6192175;23;1243;-73
2022/07/29 02:24:03;;;;;;;;;;;21.70;65.10;;;;;;6243979;23;1936;-73
2022/07/29 02:26:28;;;;;;;;;;;21.70;65.10;;;;;;6218178;23;889;-73
2022/07/29 02:28:55;;;;;;;;;;;21.70;65.20;;;;;;6218752;23;1318;-73
2022/07/29 02:31:21;;;;;;;;;;;21.70;65.10;;;;;;6219676;23;822;-73
2022/07/29 02:33:47;;;;;;;;;;;21.70;65.20;;;;;;6218972;23;1169;-73
2022/07/29 02:36:12;;;;;;;;;;;21.70;65.20;;;;;;6218586;23;925;-73
2022/07/29 02:38:50;;;;;;;;;;;21.70;65.20;;;;;;6218452;23;1008;-73
2022/07/29 02:41:19;;;;;;;;;;;21.70;65.20;;;;;;6221790;23;849;-73
2022/07/29 02:43:46;;;;;;;;;;;21.70;65.20;;;;;;6245142;23;1926;-72
2022/07/29 02:46:13;;;;;;;;;;;21.70;65.20;;;;;;6218318;23;1152;-73
2022/07/29 02:48:41;;;;;;;;;;;21.70;65.20;;;;;;6219029;23;854;-73
2022/07/29 02:51:07;;;;;;;;;;;21.70;65.30;;;;;;6218464;23;1020;-73
2022/07/29 02:53:32;;;;;;;;;;;21.70;65.20;;;;;;6218231;23;1188;-73
2022/07/29 02:56:04;;;;;;;;;;;21.70;65.30;;;;;;6219588;23;843;-73
2022/07/29 02:58:29;;;;;;;;;;;21.70;65.30;;;;;;6219572;23;798;-73
2022/07/29 03:00:59;;;;;;;;;;;21.70;65.30;;;;;;6219471;23;1372;-73
2022/07/29 03:03:25;;;;;;;;;;;21.70;65.30;;;;;;6219039;23;1932;-72
2022/07/29 03:05:53;;;;;;;;;;;21.70;65.30;;;;;;6219474;23;790;-73
2022/07/29 03:08:18;;;;;;;;;;;21.70;65.30;;;;;;6219563;23;957;-73
2022/07/29 03:10:45;;;;;;;;;;;21.70;65.30;;;;;;6219120;23;1005;-73
2022/07/29 03:13:10;;;;;;;;;;;21.70;65.30;;;;;;6219537;23;1297;-73
2022/07/29 03:15:36;;;;;;;;;;;21.70;65.40;;;;;;6218816;23;821;-73
2022/07/29 03:18:01;;;;;;;;;;;21.70;65.30;;;;;;6219127;23;799;-73
2022/07/29 03:20:27;;;;;;;;;;;21.70;65.40;;;;;;6194590;23;1188;-73
2022/07/29 03:22:52;;;;;;;;;;;21.70;65.40;;;;;;6193703;23;1892;-73
2022/07/29 03:25:18;;;;;;;;;;;21.70;65.40;;;;;;6245594;23;1047;-73
2022/07/29 03:27:44;;;;;;;;;;;21.70;65.40;;;;;;6194077;23;1383;-73
2022/07/29 03:30:10;;;;;;;;;;;21.70;65.40;;;;;;6246881;23;743;-73
2022/07/29 03:32:35;;;;;;;;;;;21.70;65.40;;;;;;6219220;23;992;-73
2022/07/29 03:35:01;;;;;;;;;;;21.70;65.40;;;;;;6218707;23;1202;-73
2022/07/29 03:37:26;;;;;;;;;;;21.70;65.40;;;;;;6193506;23;1155;-73
2022/07/29 03:39:52;;;;;;;;;;;21.70;65.40;;;;;;6246321;23;789;-74
2022/07/29 03:42:18;;;;;;;;;;;21.70;65.40;;;;;;6219317;23;803;-73
2022/07/29 03:44:44;;;;;;;;;;;21.70;65.50;;;;;;6193448;23;1944;-73
2022/07/29 03:47:09;;;;;;;;;;;21.70;65.50;;;;;;6218736;23;1388;-73
2022/07/29 03:49:35;;;;;;;;;;;21.70;65.50;;;;;;6193922;23;1251;-73
2022/07/29 03:52:00;;;;;;;;;;;21.70;65.50;;;;;;6245678;23;898;-73
2022/07/29 03:54:26;;;;;;;;;;;21.70;65.50;;;;;;6193090;23;1242;-73
2022/07/29 03:56:51;;;;;;;;;;;21.70;65.60;;;;;;6245538;23;896;-73
2022/07/29 03:59:17;;;;;;;;;;;21.70;65.60;;;;;;6218865;23;837;-73
2022/07/29 04:01:42;;;;;;;;;;;21.70;65.60;;;;;;6246144;23;825;-73
2022/07/29 04:04:08;;;;;;;;;;;21.70;65.60;;;;;;6218725;23;1889;-73
2022/07/29 04:06:51;;;;;;;;;;;21.70;65.60;;;;;;6218545;23;850;-73
2022/07/29 04:09:17;;;;;;;;;;;21.70;65.60;;;;;;6214064;23;1320;-73
2022/07/29 04:11:42;;;;;;;;;;;21.70;65.60;;;;;;6218122;23;1012;-73
2022/07/29 04:14:08;;;;;;;;;;;21.70;65.60;;;;;;6217724;23;1202;-73
2022/07/29 04:16:33;;;;;;;;;;;21.70;65.60;;;;;;6244211;23;837;-73
2022/07/29 04:18:59;;;;;;;;;;;21.70;65.70;;;;;;6217433;23;1281;-73
2022/07/29 04:21:24;;;;;;;;;;;21.70;65.70;;;;;;6218069;23;1279;-73
2022/07/29 04:23:50;;;;;;;;;;;21.70;65.70;;;;;;6243794;23;1952;-73
2022/07/29 04:26:16;;;;;;;;;;;21.70;65.70;;;;;;6217814;23;799;-73
2022/07/29 04:28:42;;;;;;;;;;;21.70;65.70;;;;;;6217690;23;1303;-73
2022/07/29 04:31:08;;;;;;;;;;;21.70;65.70;;;;;;6218314;23;755;-73
2022/07/29 04:33:33;;;;;;;;;;;21.70;65.70;;;;;;6217889;23;1184;-73
2022/07/29 04:35:59;;;;;;;;;;;21.70;65.70;;;;;;6217859;23;1284;-73
2022/07/29 04:38:24;;;;;;;;;;;21.70;65.70;;;;;;6244268;23;956;-73
2022/07/29 04:40:50;;;;;;;;;;;21.70;65.70;;;;;;6217904;23;874;-73
2022/07/29 04:43:15;;;;;;;;;;;21.70;65.70;;;;;;6217952;23;1888;-72
2022/07/29 04:45:41;;;;;;;;;;;21.70;65.70;;;;;;6217625;23;850;-72
2022/07/29 04:48:06;;;;;;;;;;;21.70;65.70;;;;;;6243850;23;908;-71
2022/07/29 04:50:32;;;;;;;;;;;21.70;65.70;;;;;;6192534;23;1275;-72
2022/07/29 04:52:57;;;;;;;;;;;21.70;65.70;;;;;;6244057;23;1297;-72
2022/07/29 04:55:23;;;;;;;;;;;21.70;65.80;;;;;;6191767;23;1424;-72
2022/07/29 04:57:48;;;;;;;;;;;21.70;65.80;;;;;;6244577;23;842;-72
2022/07/29 05:00:14;;;;;;;;;;;21.70;65.80;;;;;;6244704;23;874;-72
2022/07/29 05:02:39;;;;;;;;;;;21.70;65.80;;;;;;6217101;23;1932;-72
2022/07/29 05:05:05;;;;;;;;;;;21.70;65.80;;;;;;6243595;23;1219;-71
2022/07/29 05:07:30;;;;;;;;;;;21.70;65.80;;;;;;6217523;23;976;-72
2022/07/29 05:09:56;;;;;;;;;;;21.70;65.80;;;;;;6218592;23;949;-74
2022/07/29 05:12:23;;;;;;;;;;;21.70;65.80;;;;;;6193873;23;1338;-74
2022/07/29 05:14:48;;;;;;;;;;;21.70;65.80;;;;;;6193446;23;1281;-74
2022/07/29 05:17:14;;;;;;;;;;;21.70;65.80;;;;;;6193172;23;1400;-74
2022/07/29 05:19:39;;;;;;;;;;;21.70;65.80;;;;;;6244231;23;977;-72
2022/07/29 05:22:05;;;;;;;;;;;21.70;65.80;;;;;;6244154;23;1016;-72
2022/07/29 05:24:30;;;;;;;;;;;21.70;65.80;;;;;;6217138;23;1960;-72
2022/07/29 05:26:56;;;;;;;;;;;21.70;65.90;;;;;;6244507;23;956;-72
2022/07/29 05:29:21;;;;;;;;;;;21.70;65.80;;;;;;6191781;23;1173;-71
2022/07/29 05:31:47;;;;;;;;;;;21.70;65.90;;;;;;6244333;23;1020;-72
2022/07/29 05:34:12;;;;;;;;;;;21.70;65.90;;;;;;6243907;23;1282;-72
2022/07/29 05:36:38;;;;;;;;;;;21.70;66.00;;;;;;6243381;23;939;-72
2022/07/29 05:39:04;;;;;;;;;;;21.70;65.90;;;;;;6217321;23;830;-72
2022/07/29 05:41:31;;;;;;;;;;;21.70;65.90;;;;;;6217493;23;821;-72
2022/07/29 05:43:57;;;;;;;;;;;21.70;65.90;;;;;;6216854;23;1928;-72
2022/07/29 05:46:22;;;;;;;;;;;21.70;66.00;;;;;;6216998;23;859;-72
2022/07/29 05:48:48;;;;;;;;;;;21.70;66.00;;;;;;6217300;23;861;-72
2022/07/29 05:51:13;;;;;;;;;;;21.70;66.00;;;;;;6243775;23;1031;-72
2022/07/29 05:53:39;;;;;;;;;;;21.70;66.00;;;;;;6217032;23;1276;-72
2022/07/29 05:56:05;;;;;;;;;;;21.70;66.00;;;;;;6191484;23;1436;-72
2022/07/29 05:58:31;;;;;;;;;;;21.70;66.00;;;;;;6191720;23;1416;-72
2022/07/29 06:00:59;;;;;;;;;;;21.70;66.00;;;;;;6193844;23;822;-72
2022/07/29 06:03:24;;;;;;;;;;;21.70;66.00;;;;;;6219574;23;1939;-73
2022/07/29 06:05:50;;;;;;;;;;;21.70;66.00;;;;;;6245852;23;793;-73
2022/07/29 06:08:15;;;;;;;;;;;21.70;66.00;;;;;;6246976;23;894;-73
2022/07/29 06:10:41;;;;;;;;;;;21.70;66.00;;;;;;6194308;23;1334;-73
2022/07/29 06:13:06;;;;;;;;;;;21.70;66.10;;;;;;6246963;23;1178;-73
2022/07/29 06:15:32;;;;;;;;;;;21.70;66.10;;;;;;6246490;23;821;-73
2022/07/29 06:17:57;;;;;;;;;;;21.70;66.10;;;;;;6220010;23;1004;-73
2022/07/29 06:20:23;;;;;;;;;;;21.70;66.10;;;;;;6246435;23;1083;-73
2022/07/29 06:22:48;;;;;;;;;;;21.70;66.10;;;;;;6219835;23;1904;-73
2022/07/29 06:25:14;;;;;;;;;;;21.70;66.10;;;;;;6219431;23;790;-73
2022/07/29 06:27:39;;;;;;;;;;;21.70;66.10;;;;;;6245896;23;774;-73
2022/07/29 06:30:06;;;;;;;;;;;21.70;66.10;;;;;;6219293;23;1479;-73
2022/07/29 06:32:32;;;;;;;;;;;21.70;66.10;;;;;;6246276;23;833;-74
2022/07/29 06:34:58;;;;;;;;;;;21.70;66.10;;;;;;6245316;23;1174;-74
2022/07/29 06:37:23;;;;;;;;;;;21.70;66.10;;;;;;6246049;23;1043;-73
2022/07/29 06:40:59;;;;;;;;;;;21.70;66.10;;;;;;6219355;23;814;-73
2022/07/29 06:42:34;;;;;;;;;;;21.70;66.10;;;;;;6222446;23;1077;-73
2022/07/29 06:44:59;;;;;;;;;;;21.70;66.20;;;;;;6244718;23;1928;-73
2022/07/29 06:47:25;;;;;;;;;;;21.70;66.20;;;;;;6245591;23;815;-73
2022/07/29 06:49:50;;;;;;;;;;;21.70;66.20;;;;;;6218439;23;976;-72
2022/07/29 06:52:16;;;;;;;;;;;21.70;66.20;;;;;;6245618;23;1000;-72
2022/07/29 06:54:47;;;;;;;;;;;21.70;66.20;;;;;;6244863;23;1293;-73
2022/07/29 06:57:13;;;;;;;;;;;21.70;66.20;;;;;;6245620;23;845;-73
2022/07/29 06:59:38;;;;;;;;;;;21.70;66.20;;;;;;6218749;23;901;-73
2022/07/29 07:02:04;;;;;;;;;;;21.70;66.30;;;;;;6245225;23;981;-73
2022/07/29 07:04:29;;;;;;;;;;;21.70;66.20;;;;;;6218241;23;1938;-73
2022/07/29 07:06:55;;;;;;;;;;;21.70;66.20;;;;;;6217192;23;1147;-73
2022/07/29 07:09:21;;;;;;;;;;;21.70;66.30;;;;;;6218720;23;846;-73
2022/07/29 07:11:46;;;;;;;;;;;21.70;66.30;;;;;;6218032;23;1306;-73
2022/07/29 07:14:11;;;;;;;;;;;21.70;66.30;;;;;;6245503;23;1274;-73
2022/07/29 07:16:37;;;;;;;;;;;21.70;66.30;;;;;;6244709;23;913;-73
2022/07/29 07:19:02;;;;;;;;;;;21.70;66.30;;;;;;6218689;23;833;-73
2022/07/29 07:21:28;;;;;;;;;;;21.70;66.30;;;;;;6245272;23;798;-73
2022/07/29 07:23:54;;;;;;;;;;;21.70;66.30;;;;;;6188483;23;1892;-73
2022/07/29 07:26:19;;;;;;;;;;;21.70;66.30;;;;;;6191046;23;1272;-72
2022/07/29 07:28:45;;;;;;;;;;;21.70;66.30;;;;;;6243738;23;786;-72
2022/07/29 07:31:10;;;;;;;;;;;21.70;66.30;;;;;;6244954;23;893;-73
2022/07/29 07:33:36;;;;;;;;;;;21.70;66.30;;;;;;6217421;23;1298;-73
2022/07/29 07:36:01;;;;;;;;;;;21.70;66.30;;;;;;6191739;23;1405;-73
2022/07/29 07:38:27;;;;;;;;;;;21.70;66.30;;;;;;6217639;23;854;-72
2022/07/29 07:40:52;;;;;;;;;;;21.70;66.40;;;;;;6192549;23;1171;-73
2022/07/29 07:43:17;;;;;;;;;;;21.70;66.40;;;;;;6218076;23;1944;-73
2022/07/29 07:45:43;;;;;;;;;;;21.70;66.40;;;;;;6192159;23;1151;-73
2022/07/29 07:48:10;;;;;;;;;;;21.70;66.40;;;;;;6217915;23;928;-73
2022/07/29 07:50:35;;;;;;;;;;;21.70;66.40;;;;;;6218036;23;1400;-73
2022/07/29 07:53:01;;;;;;;;;;;21.70;66.40;;;;;;6244996;23;1273;-73
2022/07/29 07:55:27;;;;;;;;;;;21.70;66.40;;;;;;6192688;23;1315;-73
2022/07/29 07:57:53;;;;;;;;;;;21.70;66.40;;;;;;6217729;23;1637;-73
2022/07/29 08:00:18;;;;;;;;;;;21.70;66.40;;;;;;6217867;23;1410;-74
2022/07/29 08:02:44;;;;;;;;;;;21.70;66.20;;;;;;6217964;23;1943;-74
2022/07/29 08:05:11;;;;;;;;;;;21.70;65.80;;;;;;6192240;23;1366;-74
2022/07/29 08:07:36;;;;;;;;;;;21.70;65.30;;;;;;6218523;23;814;-75
2022/07/29 08:10:02;;;;;;;;;;;21.70;64.50;;;;;;6217722;23;1431;-76
2022/07/29 08:12:28;;;;;;;;;;;21.70;64.50;;;;;;6212136;23;870;-76
2022/07/29 08:14:53;;;;;;;;;;;21.70;64.10;;;;;;6216234;23;1562;-75
2022/07/29 08:17:19;;;;;;;;;;;21.70;63.60;;;;;;6217723;23;887;-75
2022/07/29 08:19:45;;;;;;;;;;;21.70;62.90;;;;;;6244616;23;801;-75
2022/07/29 08:22:10;;;;;;;;;;;21.70;62.60;;;;;;6193567;23;1316;-75
2022/07/29 08:24:55;;;;;;;;;;;21.70;61.10;;;;;;6216593;23;1948;-75
2022/07/29 08:27:21;;;;;;;;;;;21.70;61.40;;;;;;6244817;23;774;-75
2022/07/29 08:29:48;;;;;;;;;;;21.70;61.50;;;;;;6245004;23;782;-75
2022/07/29 08:32:13;;;;;;;;;;;21.70;60.00;;;;;;6219152;23;853;-75
2022/07/29 08:34:39;;;;;;;;;;;21.70;60.50;;;;;;6218475;23;1279;-75
2022/07/29 08:37:04;;;;;;;;;;;21.70;61.30;;;;;;6218707;23;1648;-75
2022/07/29 08:39:30;;;;;;;;;;;21.70;60.70;;;;;;6193422;23;1223;-74
2022/07/29 08:41:55;;;;;;;;;;;21.70;60.70;;;;;;6245478;23;873;-75
2022/07/29 08:44:21;;;;;;;;;;;21.70;59.20;;;;;;6245484;23;1888;-75
2022/07/29 08:46:47;;;;;;;;;;;21.70;59.50;;;;;;6193619;23;1092;-75
2022/07/29 08:49:12;;;;;;;;;;;21.70;58.60;;;;;;6219045;23;1008;-75
2022/07/29 08:51:41;;;;;;;;;;;21.70;59.50;;;;;;6249127;23;827;-74
2022/07/29 08:54:08;;;;;;;;;;;21.70;59.70;;;;;;6246840;23;1281;-75
2022/07/29 08:56:33;;;;;;;;;;;21.70;59.40;;;;;;6217921;23;870;-75
2022/07/29 08:58:58;;;;;;;;;;;21.70;59.40;;;;;;6193018;23;1113;-77
2022/07/29 09:01:25;;;;;;;;;;;21.70;59.90;;;;;;6218534;23;973;-75
2022/07/29 09:03:50;;;;;;;;;;;21.70;59.80;;;;;;6193877;23;1931;-75
2022/07/29 09:06:17;;;;;;;;;;;21.70;59.60;;;;;;6218442;23;831;-75
2022/07/29 09:08:42;;;;;;;;;;;21.70;59.40;;;;;;6193162;23;1322;-75
2022/07/29 09:11:08;;;;;;;;;;;21.70;59.10;;;;;;6193013;23;1337;-75
2022/07/29 09:13:33;;;;;;;;;;;21.70;58.80;;;;;;6218395;23;1257;-75
2022/07/29 09:15:59;;;;;;;;;;;21.70;58.30;;;;;;6192660;23;1209;-75
2022/07/29 09:18:38;;;;;;;;;;;21.70;58.50;;;;;;6193351;23;1411;-75
2022/07/29 09:24:17;;;;;;;;;;;21.70;58.30;;;;;;6244521;23;1946;-75
2022/07/29 09:26:43;;;;;;;;;;;21.80;58.20;;;;;;6212380;23;1402;-75
2022/07/29 09:29:09;;;;;;;;;;;21.80;57.50;;;;;;6218202;23;770;-75
2022/07/29 09:31:38;;;;;;;;;;;21.80;57.10;;;;;;6244969;23;806;-75
2022/07/29 09:34:04;;;;;;;;;;;21.80;56.70;;;;;;6217374;23;1184;-75
2022/07/29 09:36:29;;;;;;;;;;;21.80;56.80;;;;;;6217772;23;782;-75
2022/07/29 09:39:02;;;;;;;;;;;21.80;57.50;;;;;;6217863;23;877;-75
2022/07/29 09:41:27;;;;;;;;;;;21.80;57.70;;;;;;6218344;23;849;-75
2022/07/29 09:43:56;;;;;;;;;;;21.80;57.00;;;;;;6218042;23;1889;-75
2022/07/29 09:46:22;;;;;;;;;;;21.80;56.70;;;;;;6192901;23;1200;-73
2022/07/29 09:49:07;;;;;;;;;;;21.80;56.10;;;;;;6193064;23;1307;-73
2022/07/29 09:51:32;;;;;;;;;;;21.80;56.00;;;;;;6245042;23;1022;-73
2022/07/29 09:54:00;;;;;;;;;;;21.80;56.30;;;;;;6217896;23;1225;-73
2022/07/29 09:56:38;;;;;;;;;;;21.80;56.20;;;;;;6192858;23;1279;-73
2022/07/29 09:59:05;;;;;;;;;;;21.80;55.80;;;;;;6218160;23;1115;-73
2022/07/29 10:01:30;;;;;;;;;;;21.80;55.60;;;;;;6193088;23;1223;-73
2022/07/29 10:03:56;;;;;;;;;;;21.80;55.30;;;;;;6217859;23;1896;-73
2022/07/29 10:06:21;;;;;;;;;;;21.80;55.10;;;;;;6217811;23;870;-73
2022/07/29 10:08:47;;;;;;;;;;;21.80;54.50;;;;;;6192907;23;1227;-75
2022/07/29 10:11:13;;;;;;;;;;;21.80;54.20;;;;;;6194231;23;1183;-81
2022/07/29 10:13:39;;;;;;;;;;;21.80;54.30;;;;;;6193925;23;1263;-80
2022/07/29 10:16:04;;;;;;;;;;;21.80;54.00;;;;;;6194214;23;1246;-79
2022/07/29 10:18:30;;;;;;;;;;;21.80;54.10;;;;;;6219712;23;778;-78
2022/07/29 10:20:55;;;;;;;;;;;21.80;53.70;;;;;;6219008;23;818;-77
2022/07/29 10:23:21;;;;;;;;;;;21.80;53.40;;;;;;6192320;23;1905;-77
2022/07/29 10:25:46;;;;;;;;;;;21.80;53.30;;;;;;6217728;23;984;-81
2022/07/29 10:28:12;;;;;;;;;;;21.80;53.20;;;;;;6217864;23;1056;-73
2022/07/29 10:30:38;;;;;;;;;;;21.80;53.00;;;;;;6193271;23;1455;-74
2022/07/29 10:33:22;;;;;;;;;;;21.80;53.20;;;;;;6217815;23;1298;-75
2022/07/29 10:35:51;;;;;;;;;;;21.80;52.70;;;;;;6244555;23;790;-75
2022/07/29 10:38:16;;;;;;;;;;;21.80;52.90;;;;;;6245044;23;802;-75
2022/07/29 10:43:32;;;;;;;;;;;21.80;53.10;;;;;;6248346;22;3737;-67
2022/07/29 10:45:59;;;;;;;;;;;21.80;52.90;;;;;;6275532;22;839;-67
2022/07/29 10:48:24;;;;;;;;;;;21.80;53.00;;;;;;6277912;22;819;-67
2022/07/29 10:50:54;;;;;;;;;;;21.80;53.40;;;;;;6250715;22;898;-67
2022/07/29 10:53:19;;;;;;;;;;;21.90;53.90;;;;;;6277549;22;1286;-67
2022/07/29 10:55:48;;;;;;;;;;;21.90;53.40;;;;;;6250902;22;984;-67
2022/07/29 10:58:20;;;;;;;;;;;21.90;53.30;;;;;;6250586;22;819;-67
2022/07/29 11:00:49;;;;;;;;;;;21.90;53.10;;;;;;6277690;22;827;-67
2022/07/29 11:03:35;;;;;;;;;;;21.90;53.10;;;;;;6250478;22;1942;-67
2022/07/29 11:06:00;;;;;;;;;;;21.90;53.00;;;;;;6250466;22;1071;-67
2022/07/29 11:08:26;;;;;;;;;;;21.90;52.90;;;;;;6277775;22;1001;-67
2022/07/29 11:10:52;;;;;;;;;;;21.90;52.90;;;;;;6277617;22;780;-67
2022/07/29 11:13:46;;;;;;;;;;;21.90;52.80;;;;;;6250596;22;1268;-67
2022/07/29 11:16:11;;;;;;;;;;;21.90;52.80;;;;;;6277038;22;859;-67
2022/07/29 11:18:56;;;;;;;;;;;21.90;52.70;;;;;;6277655;22;921;-68
2022/07/29 11:21:34;;;;;;;;;;;21.90;53.00;;;;;;6277269;22;1016;-67
2022/07/29 11:24:20;;;;;;;;;;;21.90;53.20;;;;;;6277249;22;1892;-67
2022/07/29 11:27:05;;;;;;;;;;;21.90;53.10;;;;;;6250506;22;808;-67
2022/07/29 11:29:31;;;;;;;;;;;21.90;53.50;;;;;;6250427;22;835;-67
2022/07/29 11:31:56;;;;;;;;;;;21.90;53.60;;;;;;6250211;22;868;-67
2022/07/29 11:34:25;;;;;;;;;;;21.90;53.90;;;;;;6250130;22;1286;-67
2022/07/29 11:37:14;;;;;;;;;;;21.90;53.90;;;;;;6277201;22;828;-67
2022/07/29 11:39:41;;;;;;;;;;;21.90;54.00;;;;;;6277476;22;827;-67
2022/07/29 11:42:16;;;;;;;;;;;21.90;54.20;;;;;;6250654;22;819;-67
2022/07/29 11:44:56;;;;;;;;;;;21.90;54.20;;;;;;6276839;22;1938;-67
2022/07/29 11:47:21;;;;;;;;;;;22.00;54.30;;;;;;6250609;22;728;-67
2022/07/29 11:49:47;;;;;;;;;;;22.00;54.40;;;;;;6250261;22;796;-67
2022/07/29 11:52:12;;;;;;;;;;;22.00;54.50;;;;;;6277359;22;800;-68
2022/07/29 11:54:39;;;;;;;;;;;22.00;54.40;;;;;;6249884;22;1286;-67
2022/07/29 11:57:06;;;;;;;;;;;22.00;54.70;;;;;;6249843;22;850;-67
2022/07/29 11:59:31;;;;;;;;;;;22.00;54.60;;;;;;6249983;22;915;-67
2022/07/29 12:01:57;;;;;;;;;;;22.00;54.70;;;;;;6249879;22;911;-67
2022/07/29 12:04:23;;;;;;;;;;;22.00;54.50;;;;;;6249528;22;1938;-67
2022/07/29 12:06:52;;;;;;;;;;;22.00;54.40;;;;;;6276840;22;965;-68
2022/07/29 12:09:17;;;;;;;;;;;22.00;54.40;;;;;;6277047;22;819;-67
2022/07/29 12:11:43;;;;;;;;;;;22.00;54.30;;;;;;6249980;22;970;-67
2022/07/29 12:14:08;;;;;;;;;;;22.10;54.40;;;;;;6276965;22;1250;-68
2022/07/29 12:16:34;;;;;;;;;;;22.10;54.50;;;;;;6276656;22;1052;-67
2022/07/29 12:19:00;;;;;;;;;;;22.10;54.70;;;;;;6276965;22;1045;-67
2022/07/29 12:21:26;;;;;;;;;;;22.00;54.60;;;;;;6250000;22;796;-67
2022/07/29 12:23:54;;;;;;;;;;;22.10;54.80;;;;;;6276890;22;1892;-67
2022/07/29 12:26:20;;;;;;;;;;;22.10;54.70;;;;;;6276916;22;801;-66
2022/07/29 12:28:45;;;;;;;;;;;22.00;54.70;;;;;;6276935;22;922;-66
2022/07/29 12:31:14;;;;;;;;;;;22.10;54.80;;;;;;6276636;22;883;-67
2022/07/29 12:33:39;;;;;;;;;;;22.10;54.90;;;;;;6276749;22;1195;-68
2022/07/29 12:36:05;;;;;;;;;;;22.10;54.80;;;;;;6275088;22;1052;-66
2022/07/29 12:38:30;;;;;;;;;;;22.10;54.90;;;;;;6249174;22;1021;-67
2022/07/29 12:40:57;;;;;;;;;;;22.10;55.10;;;;;;6276096;22;962;-67
2022/07/29 12:43:23;;;;;;;;;;;22.10;55.10;;;;;;6248831;22;1935;-66
2022/07/29 12:45:49;;;;;;;;;;;22.10;54.80;;;;;;6275895;22;1016;-69
2022/07/29 12:48:15;;;;;;;;;;;22.10;54.70;;;;;;6274560;22;838;-67
2022/07/29 12:50:53;;;;;;;;;;;22.10;55.00;;;;;;6247572;22;780;-67
2022/07/29 12:53:19;;;;;;;;;;;22.10;55.10;;;;;;6250035;22;1209;-68
2022/07/29 12:55:48;;;;;;;;;;;22.10;55.20;;;;;;6249245;22;1342;-68
2022/07/29 12:58:25;;;;;;;;;;;22.20;55.30;;;;;;6276604;22;867;-68
2022/07/29 13:00:58;;;;;;;;;;;22.10;55.50;;;;;;6276531;22;812;-67
2022/07/29 13:03:23;;;;;;;;;;;22.10;55.80;;;;;;6249561;22;1901;-66
2022/07/29 13:05:50;;;;;;;;;;;22.10;55.90;;;;;;6276369;22;788;-66
2022/07/29 13:08:16;;;;;;;;;;;22.10;55.70;;;;;;6276950;22;786;-67
2022/07/29 13:10:42;;;;;;;;;;;22.10;55.90;;;;;;6276246;22;810;-66
2022/07/29 13:13:09;;;;;;;;;;;22.10;55.90;;;;;;6249406;22;1236;-66
2022/07/29 13:15:35;;;;;;;;;;;22.10;56.00;;;;;;6249405;22;824;-67
2022/07/29 13:18:00;;;;;;;;;;;22.10;56.00;;;;;;6249545;22;788;-67
2022/07/29 13:20:29;;;;;;;;;;;22.10;56.00;;;;;;6249607;22;768;-65
2022/07/29 13:22:55;;;;;;;;;;;22.20;56.20;;;;;;6276377;22;1888;-67
2022/07/29 13:25:24;;;;;;;;;;;22.20;56.00;;;;;;6248898;22;1211;-68
2022/07/29 13:27:49;;;;;;;;;;;22.20;55.90;;;;;;6249433;22;1004;-68
2022/07/29 13:32:50;;;;;;;;;;;22.20;55.50;;;;;;6249377;22;1462;-68
2022/07/29 13:35:16;;;;;;;;;;;22.20;55.60;;;;;;6246724;22;850;-66
2022/07/29 13:37:41;;;;;;;;;;;22.20;55.70;;;;;;6248513;22;1459;-66
2022/07/29 13:40:07;;;;;;;;;;;22.20;55.90;;;;;;6276599;22;831;-66
2022/07/29 13:42:33;;;;;;;;;;;22.20;55.50;;;;;;6248920;22;1226;-66
2022/07/29 13:44:58;;;;;;;;;;;22.30;55.50;;;;;;6249148;22;1904;-66
2022/07/29 13:47:24;;;;;;;;;;;22.30;55.70;;;;;;6276812;22;808;-67
2022/07/29 13:49:49;;;;;;;;;;;22.30;55.60;;;;;;6249259;22;1021;-67
2022/07/29 13:52:15;;;;;;;;;;;22.30;55.50;;;;;;6275852;22;1269;-67
2022/07/29 13:54:41;;;;;;;;;;;22.30;55.00;;;;;;6249288;22;811;-68
2022/07/29 13:57:06;;;;;;;;;;;22.30;54.80;;;;;;6276102;22;1060;-68
2022/07/29 13:59:32;;;;;;;;;;;22.30;54.90;;;;;;6276292;22;824;-68
2022/07/29 14:01:57;;;;;;;;;;;22.30;55.30;;;;;;6248794;22;1269;-67
2022/07/29 14:04:23;;;;;;;;;;;22.30;55.40;;;;;;6276559;22;2015;-68
2022/07/29 14:06:49;;;;;;;;;;;22.30;55.30;;;;;;6276252;22;780;-67
2022/07/29 14:09:14;;;;;;;;;;;22.30;55.60;;;;;;6276328;22;826;-67
2022/07/29 14:11:40;;;;;;;;;;;22.40;55.60;;;;;;6275978;22;1265;-67
2022/07/29 14:14:05;;;;;;;;;;;22.30;55.80;;;;;;6249246;22;803;-67
2022/07/29 14:16:31;;;;;;;;;;;22.30;55.60;;;;;;6246861;22;863;-67
2022/07/29 14:18:56;;;;;;;;;;;22.30;55.40;;;;;;6275355;22;1025;-67
2022/07/29 14:21:21;;;;;;;;;;;22.30;55.70;;;;;;6277403;22;1277;-69
2022/07/29 14:23:47;;;;;;;;;;;22.30;56.20;;;;;;6250732;22;1881;-68
2022/07/29 14:26:13;;;;;;;;;;;22.30;56.10;;;;;;6278165;22;796;-68
2022/07/29 14:28:38;;;;;;;;;;;22.30;55.90;;;;;;6277971;22;871;-67
2022/07/29 14:31:03;;;;;;;;;;;22.30;55.50;;;;;;6278261;22;840;-68
2022/07/29 14:33:29;;;;;;;;;;;22.30;55.30;;;;;;6277616;22;1254;-67
2022/07/29 14:35:54;;;;;;;;;;;22.30;55.10;;;;;;6278633;22;832;-67
2022/07/29 14:38:20;;;;;;;;;;;22.30;54.80;;;;;;6278442;22;796;-66
2022/07/29 15:15:54;;;;;;;;;;;22.30;54.80;;;;;;6285725;22;883527;-66
2022/07/29 15:18:20;;;;;;;;;;;22.30;55.00;;;;;;6183293;22;1231598;-67